地図

経路データ

SID SEASON NUMBER BASIN SUBBASIN NAME ISO_TIME NATURE LAT LON WMO_WIND WMO_PRES WMO_AGENCY TRACK_TYPE DIST2LAND LANDFALL IFLAG USA_AGENCY USA_ATCF_ID USA_LAT USA_LON USA_RECORD USA_STATUS USA_WIND USA_PRES USA_SSHS USA_R34_NE USA_R34_SE USA_R34_SW USA_R34_NW USA_R50_NE USA_R50_SE USA_R50_SW USA_R50_NW USA_R64_NE USA_R64_SE USA_R64_SW USA_R64_NW USA_POCI USA_ROCI USA_RMW USA_EYE TOKYO_LAT TOKYO_LON TOKYO_GRADE TOKYO_WIND TOKYO_PRES TOKYO_R50_DIR TOKYO_R50_LONG TOKYO_R50_SHORT TOKYO_R30_DIR TOKYO_R30_LONG TOKYO_R30_SHORT TOKYO_LAND CMA_LAT CMA_LON CMA_CAT CMA_WIND CMA_PRES HKO_LAT HKO_LON HKO_CAT HKO_WIND HKO_PRES NEWDELHI_LAT NEWDELHI_LON NEWDELHI_GRADE NEWDELHI_WIND NEWDELHI_PRES NEWDELHI_CI NEWDELHI_DP NEWDELHI_POCI REUNION_LAT REUNION_LON REUNION_TYPE REUNION_WIND REUNION_PRES REUNION_TNUM REUNION_CI REUNION_RMW REUNION_R34_NE REUNION_R34_SE REUNION_R34_SW REUNION_R34_NW REUNION_R50_NE REUNION_R50_SE REUNION_R50_SW REUNION_R50_NW REUNION_R64_NE REUNION_R64_SE REUNION_R64_SW REUNION_R64_NW BOM_LAT BOM_LON BOM_TYPE BOM_WIND BOM_PRES BOM_TNUM BOM_CI BOM_RMW BOM_R34_NE BOM_R34_SE BOM_R34_SW BOM_R34_NW BOM_R50_NE BOM_R50_SE BOM_R50_SW BOM_R50_NW BOM_R64_NE BOM_R64_SE BOM_R64_SW BOM_R64_NW BOM_ROCI BOM_POCI BOM_EYE BOM_POS_METHOD BOM_PRES_METHOD NADI_LAT NADI_LON NADI_CAT NADI_WIND NADI_PRES WELLINGTON_LAT WELLINGTON_LON WELLINGTON_WIND WELLINGTON_PRES DS824_LAT DS824_LON DS824_STAGE DS824_WIND DS824_PRES TD9636_LAT TD9636_LON TD9636_STAGE TD9636_WIND TD9636_PRES TD9635_LAT TD9635_LON TD9635_WIND TD9635_PRES TD9635_ROCI NEUMANN_LAT NEUMANN_LON NEUMANN_CLASS NEUMANN_WIND NEUMANN_PRES MLC_LAT MLC_LON MLC_CLASS MLC_WIND MLC_PRES USA_GUST BOM_GUST BOM_GUST_PER REUNION_GUST REUNION_GUST_PER USA_SEAHGT USA_SEARAD_NE USA_SEARAD_SE USA_SEARAD_SW USA_SEARAD_NW STORM_SPEED STORM_DIR
1930249N18091 1930 45 NI BB NOT_NAMED 1930-09-06 00:00:00 TS 17.9000 90.9000 main 319 319 _________O____ -1 17.9000 90.9000 TC 30 4 280
1930249N18091 1930 45 NI BB NOT_NAMED 1930-09-06 03:00:00 TS 17.9334 90.6934 main 337 337 _________PO___ -1 17.9501 90.5900 TC 30 17.9000 90.9000 1 5 280
1930249N18091 1930 45 NI BB NOT_NAMED 1930-09-06 06:00:00 TS 17.9777 90.4238 main 352 352 _________OP___ -1 18.0000 90.3000 TC 30 17.9442 90.6095 1 5 280
1930249N18091 1930 45 NI BB NOT_NAMED 1930-09-06 09:00:00 TS 18.0245 90.1636 main 367 367 _________PP___ -1 18.0499 90.0425 TC 30 17.9905 90.3251 1 5 281
1930249N18091 1930 45 NI BB NOT_NAMED 1930-09-06 12:00:00 TS 18.0708 89.9266 main 383 383 _________OP___ -1 18.1000 89.8000 TC 30 18.0415 90.0532 1 5 282
1930249N18091 1930 45 NI BB NOT_NAMED 1930-09-06 15:00:00 TS 18.1212 89.6712 main 396 368 _________PO___ -1 18.1425 89.5425 TC 30 18.1000 89.8000 1 5 284
1930249N18091 1930 45 NI BB NOT_NAMED 1930-09-06 18:00:00 TS 18.1838 89.4343 main 368 344 _________OP___ -1 18.2000 89.3000 TC 30 18.1676 89.5687 1 4 289
1930249N18091 1930 45 NI BB NOT_NAMED 1930-09-06 21:00:00 TS 18.2673 89.2249 main 344 321 _________PP___ -1 18.2924 89.1000 TC 30 18.2422 89.3499 1 4 294
1930249N18091 1930 45 NI BB NOT_NAMED 1930-09-07 00:00:00 TS 18.3603 89.0156 main 321 306 _________OP___ -1 18.4000 88.9000 TC 30 18.3207 89.1312 1 5 294
1930249N18091 1930 45 NI BB NOT_NAMED 1930-09-07 03:00:00 TS 18.4537 88.7825 main 298 276 _________PO___ -1 18.5075 88.6650 TC 30 18.4000 88.9000 1 5 290
1930249N18091 1930 45 NI BB NOT_NAMED 1930-09-07 06:00:00 TS 18.5396 88.5096 main 276 245 _________OP___ -1 18.6000 88.4000 TC 30 18.4792 88.6191 1 6 286
1930249N18091 1930 45 NI BB NOT_NAMED 1930-09-07 09:00:00 TS 18.6077 88.2063 main 245 214 _________PP___ -1 18.6576 88.0850 TC 30 18.5577 88.3276 1 6 283
1930249N18091 1930 45 NI BB NOT_NAMED 1930-09-07 12:00:00 TS 18.6662 87.9236 main 214 199 _________OP___ -1 18.7000 87.8000 TC 30 18.6324 88.0473 1 5 284
1930249N18091 1930 45 NI BB NOT_NAMED 1930-09-07 15:00:00 TS 18.7250 87.7137 main 199 184 _________PO___ -1 18.7499 87.6275 TC 30 18.7000 87.8000 1 3 289
1930249N18091 1930 45 NI BB NOT_NAMED 1930-09-07 18:00:00 TS 18.7699 87.5973 main 184 176 _________OP___ -1 18.8000 87.5000 TC 30 18.7398 87.6947 1 2 293
1930249N18091 1930 45 NI BB NOT_NAMED 1930-09-07 21:00:00 TS 18.8051 87.5181 main 176 161 _________PP___ -1 18.8346 87.4248 TC 30 18.7757 87.6114 1 3 291
1930249N18091 1930 45 NI BB NOT_NAMED 1930-09-08 00:00:00 TS 18.8619 87.3363 main 155 123 _________OP___ -1 18.9000 87.2000 TC 30 18.8238 87.4725 1 6 286
1930249N18091 1930 45 NI BB NOT_NAMED 1930-09-08 03:00:00 TS 18.9677 86.9126 main 123 91 _________PO___ -1 19.0353 86.6251 TC 30 18.9000 87.2000 1 10 284
1930249N18091 1930 45 NI BB NOT_NAMED 1930-09-08 06:00:00 TS 19.1152 86.2972 main 91 45 _________OP___ -1 19.2000 85.9000 TC 30 19.0304 86.6944 1 12 284
1930249N18091 1930 45 NI BB NOT_NAMED 1930-09-08 09:00:00 TS 19.2718 85.6504 main 45 0 _________PP___ -1 19.3573 85.2500 TC 30 19.1864 86.0508 1 13 284
1930249N18091 1930 45 NI BB NOT_NAMED 1930-09-08 12:00:00 TS 19.4245 84.9659 main 0 0 _________OP___ -1 19.5000 84.6000 TC 30 19.3490 85.3318 1 13 282
1930249N18091 1930 45 NI BB NOT_NAMED 1930-09-08 15:00:00 TS 19.5536 84.2749 main 0 0 _________PO___ -1 19.6073 83.9498 TC 30 19.5000 84.6000 1 13 281
1930249N18091 1930 45 NI BB NOT_NAMED 1930-09-08 18:00:00 TS 19.6578 83.6463 main 0 0 _________OP___ -1 19.7000 83.3000 TC 30 19.6261 83.9061 1 12 280
1930249N18091 1930 45 NI BB NOT_NAMED 1930-09-08 21:00:00 TS 19.7574 83.0101 main 0 0 _________PP___ -1 19.7980 82.6502 TC 30 19.7303 83.2499 1 12 279
1930249N18091 1930 45 NI BB NOT_NAMED 1930-09-09 00:00:00 TS 19.8463 82.4126 main 0 0 _________OP___ -1 19.9000 82.0000 TC 30 19.8194 82.6188 1 10 279
1930249N18091 1930 45 NI BB NOT_NAMED 1930-09-09 03:00:00 NR 19.9000 82.0000 main 0 __________O___ -1 TC 19.9000 82.0000 1 8 278

IBTrACS Databaseについて

本データベースは、米国NOAAが公開する1842年以降の世界の熱帯低気圧のベストトラックデータアーカイブInternational Best Track Archive for Climate Stewardship (IBTrACS)を、ウェブで閲覧しやすい形式に変換したものです。

最終更新日:2021-11-26